sensor_id;sensor_type;location;lat;lon;timestamp;P1;durP1;ratioP1;P2;durP2;ratioP2
56183;SDS011;42086;53.170;6.980;2022-11-20T00:00:51;21.33;;;11.60;;
56183;SDS011;42086;53.170;6.980;2022-11-20T00:03:17;21.95;;;12.52;;
56183;SDS011;42086;53.170;6.980;2022-11-20T00:05:43;22.08;;;10.45;;
56183;SDS011;42086;53.170;6.980;2022-11-20T00:08:10;21.35;;;11.45;;
56183;SDS011;42086;53.170;6.980;2022-11-20T00:10:36;24.35;;;12.38;;
56183;SDS011;42086;53.170;6.980;2022-11-20T00:13:03;25.17;;;12.63;;
56183;SDS011;42086;53.170;6.980;2022-11-20T00:15:29;25.95;;;13.00;;
56183;SDS011;42086;53.170;6.980;2022-11-20T00:17:55;24.98;;;13.00;;
56183;SDS011;42086;53.170;6.980;2022-11-20T00:20:20;23.67;;;12.60;;
56183;SDS011;42086;53.170;6.980;2022-11-20T00:22:46;23.67;;;12.35;;
56183;SDS011;42086;53.170;6.980;2022-11-20T00:25:12;26.13;;;13.40;;
56183;SDS011;42086;53.170;6.980;2022-11-20T00:27:38;23.58;;;12.45;;
56183;SDS011;42086;53.170;6.980;2022-11-20T00:30:04;22.08;;;11.45;;
56183;SDS011;42086;53.170;6.980;2022-11-20T00:32:30;25.88;;;12.70;;
56183;SDS011;42086;53.170;6.980;2022-11-20T00:34:56;21.90;;;11.48;;
56183;SDS011;42086;53.170;6.980;2022-11-20T00:37:21;24.33;;;12.63;;
56183;SDS011;42086;53.170;6.980;2022-11-20T00:39:47;32.92;;;13.45;;
56183;SDS011;42086;53.170;6.980;2022-11-20T00:42:13;24.85;;;11.98;;
56183;SDS011;42086;53.170;6.980;2022-11-20T00:44:38;22.85;;;12.30;;
56183;SDS011;42086;53.170;6.980;2022-11-20T00:47:04;21.85;;;11.85;;
56183;SDS011;42086;53.170;6.980;2022-11-20T00:49:30;22.52;;;11.98;;
56183;SDS011;42086;53.170;6.980;2022-11-20T00:51:56;22.75;;;12.20;;
56183;SDS011;42086;53.170;6.980;2022-11-20T00:54:21;22.80;;;12.18;;
56183;SDS011;42086;53.170;6.980;2022-11-20T00:56:47;21.88;;;12.32;;
56183;SDS011;42086;53.170;6.980;2022-11-20T00:59:13;25.80;;;12.07;;
56183;SDS011;42086;53.170;6.980;2022-11-20T01:01:38;20.25;;;11.15;;
56183;SDS011;42086;53.170;6.980;2022-11-20T01:04:04;23.83;;;12.05;;
56183;SDS011;42086;53.170;6.980;2022-11-20T01:06:34;22.73;;;12.40;;
56183;SDS011;42086;53.170;6.980;2022-11-20T01:09:03;21.10;;;11.82;;
56183;SDS011;42086;53.170;6.980;2022-11-20T01:11:33;23.20;;;11.93;;
56183;SDS011;42086;53.170;6.980;2022-11-20T01:14:01;21.38;;;11.60;;
56183;SDS011;42086;53.170;6.980;2022-11-20T01:16:30;22.27;;;11.00;;
56183;SDS011;42086;53.170;6.980;2022-11-20T01:18:58;21.92;;;11.80;;
56183;SDS011;42086;53.170;6.980;2022-11-20T01:21:29;20.73;;;10.80;;
56183;SDS011;42086;53.170;6.980;2022-11-20T01:23:57;22.27;;;11.95;;
56183;SDS011;42086;53.170;6.980;2022-11-20T01:26:24;21.60;;;11.40;;
56183;SDS011;42086;53.170;6.980;2022-11-20T01:28:52;21.60;;;10.50;;
56183;SDS011;42086;53.170;6.980;2022-11-20T01:31:20;22.65;;;11.63;;
56183;SDS011;42086;53.170;6.980;2022-11-20T01:33:48;23.88;;;12.32;;
56183;SDS011;42086;53.170;6.980;2022-11-20T01:36:16;21.13;;;11.00;;
56183;SDS011;42086;53.170;6.980;2022-11-20T01:38:43;22.58;;;11.05;;
56183;SDS011;42086;53.170;6.980;2022-11-20T01:41:09;23.02;;;11.45;;
56183;SDS011;42086;53.170;6.980;2022-11-20T01:43:56;20.10;;;10.88;;
56183;SDS011;42086;53.170;6.980;2022-11-20T01:46:21;21.48;;;11.23;;
56183;SDS011;42086;53.170;6.980;2022-11-20T01:48:54;20.80;;;10.93;;
56183;SDS011;42086;53.170;6.980;2022-11-20T01:54:30;21.75;;;11.43;;
56183;SDS011;42086;53.170;6.980;2022-11-20T01:57:02;22.58;;;10.48;;
56183;SDS011;42086;53.170;6.980;2022-11-20T01:59:30;21.48;;;10.77;;
56183;SDS011;42086;53.170;6.980;2022-11-20T02:01:56;19.63;;;11.32;;
56183;SDS011;42086;53.170;6.980;2022-11-20T02:04:22;19.85;;;10.88;;
56183;SDS011;42086;53.170;6.980;2022-11-20T02:09:24;21.52;;;10.70;;
56183;SDS011;42086;53.170;6.980;2022-11-20T02:11:49;21.17;;;10.98;;
56183;SDS011;42086;53.170;6.980;2022-11-20T02:14:16;21.10;;;11.32;;
56183;SDS011;42086;53.170;6.980;2022-11-20T02:16:45;19.63;;;10.43;;
56183;SDS011;42086;53.170;6.980;2022-11-20T02:19:22;21.63;;;10.85;;
56183;SDS011;42086;53.170;6.980;2022-11-20T02:24:54;22.45;;;10.40;;
56183;SDS011;42086;53.170;6.980;2022-11-20T02:27:20;20.92;;;10.05;;
56183;SDS011;42086;53.170;6.980;2022-11-20T02:29:53;20.40;;;10.77;;
56183;SDS011;42086;53.170;6.980;2022-11-20T02:32:29;20.73;;;10.57;;
56183;SDS011;42086;53.170;6.980;2022-11-20T02:34:56;20.75;;;10.15;;
56183;SDS011;42086;53.170;6.980;2022-11-20T02:37:23;18.25;;;10.23;;
56183;SDS011;42086;53.170;6.980;2022-11-20T02:39:55;20.65;;;10.63;;
56183;SDS011;42086;53.170;6.980;2022-11-20T02:42:21;20.13;;;10.15;;
56183;SDS011;42086;53.170;6.980;2022-11-20T02:44:47;20.15;;;10.60;;
56183;SDS011;42086;53.170;6.980;2022-11-20T02:47:12;19.23;;;10.25;;
56183;SDS011;42086;53.170;6.980;2022-11-20T02:49:38;20.08;;;10.20;;
56183;SDS011;42086;53.170;6.980;2022-11-20T02:52:04;17.65;;;10.30;;
56183;SDS011;42086;53.170;6.980;2022-11-20T02:54:29;22.40;;;10.80;;
56183;SDS011;42086;53.170;6.980;2022-11-20T02:56:55;19.42;;;10.35;;
56183;SDS011;42086;53.170;6.980;2022-11-20T02:59:21;20.42;;;10.20;;
56183;SDS011;42086;53.170;6.980;2022-11-20T03:01:47;22.52;;;11.35;;
56183;SDS011;42086;53.170;6.980;2022-11-20T03:04:13;19.15;;;10.23;;
56183;SDS011;42086;53.170;6.980;2022-11-20T03:06:38;23.60;;;11.20;;
56183;SDS011;42086;53.170;6.980;2022-11-20T03:09:04;21.08;;;10.48;;
56183;SDS011;42086;53.170;6.980;2022-11-20T03:11:30;17.13;;;9.70;;
56183;SDS011;42086;53.170;6.980;2022-11-20T03:13:55;20.85;;;11.18;;
56183;SDS011;42086;53.170;6.980;2022-11-20T03:16:21;20.83;;;11.00;;
56183;SDS011;42086;53.170;6.980;2022-11-20T03:18:48;21.75;;;10.27;;
56183;SDS011;42086;53.170;6.980;2022-11-20T03:21:16;20.60;;;10.15;;
56183;SDS011;42086;53.170;6.980;2022-11-20T03:23:42;19.88;;;10.18;;
56183;SDS011;42086;53.170;6.980;2022-11-20T03:28:47;19.30;;;10.35;;
56183;SDS011;42086;53.170;6.980;2022-11-20T03:31:15;20.77;;;10.88;;
56183;SDS011;42086;53.170;6.980;2022-11-20T03:33:43;24.10;;;11.63;;
56183;SDS011;42086;53.170;6.980;2022-11-20T03:36:10;23.15;;;11.25;;
56183;SDS011;42086;53.170;6.980;2022-11-20T03:38:38;19.08;;;10.85;;
56183;SDS011;42086;53.170;6.980;2022-11-20T03:41:06;18.55;;;9.60;;
56183;SDS011;42086;53.170;6.980;2022-11-20T03:43:33;19.77;;;10.43;;
56183;SDS011;42086;53.170;6.980;2022-11-20T03:46:00;21.35;;;10.18;;
56183;SDS011;42086;53.170;6.980;2022-11-20T03:48:26;20.45;;;10.98;;
56183;SDS011;42086;53.170;6.980;2022-11-20T03:50:53;21.60;;;10.25;;
56183;SDS011;42086;53.170;6.980;2022-11-20T03:53:31;19.48;;;10.27;;
56183;SDS011;42086;53.170;6.980;2022-11-20T03:55:57;21.98;;;10.57;;
56183;SDS011;42086;53.170;6.980;2022-11-20T03:58:22;19.13;;;10.50;;
56183;SDS011;42086;53.170;6.980;2022-11-20T04:00:48;22.52;;;10.35;;
56183;SDS011;42086;53.170;6.980;2022-11-20T04:03:14;24.02;;;11.52;;
56183;SDS011;42086;53.170;6.980;2022-11-20T04:05:39;18.08;;;9.68;;
56183;SDS011;42086;53.170;6.980;2022-11-20T04:08:05;19.20;;;10.50;;
56183;SDS011;42086;53.170;6.980;2022-11-20T04:10:31;20.52;;;9.77;;
56183;SDS011;42086;53.170;6.980;2022-11-20T04:12:56;19.30;;;9.13;;
56183;SDS011;42086;53.170;6.980;2022-11-20T04:15:22;19.90;;;9.93;;
56183;SDS011;42086;53.170;6.980;2022-11-20T04:17:48;18.65;;;9.20;;
56183;SDS011;42086;53.170;6.980;2022-11-20T04:20:13;19.95;;;10.40;;
56183;SDS011;42086;53.170;6.980;2022-11-20T04:22:39;18.92;;;10.20;;
56183;SDS011;42086;53.170;6.980;2022-11-20T04:25:05;19.20;;;10.02;;
56183;SDS011;42086;53.170;6.980;2022-11-20T04:27:31;22.25;;;10.00;;
56183;SDS011;42086;53.170;6.980;2022-11-20T04:29:56;17.50;;;9.65;;
56183;SDS011;42086;53.170;6.980;2022-11-20T04:32:22;17.85;;;10.38;;
56183;SDS011;42086;53.170;6.980;2022-11-20T04:34:48;21.10;;;10.75;;
56183;SDS011;42086;53.170;6.980;2022-11-20T04:37:13;19.33;;;10.15;;
56183;SDS011;42086;53.170;6.980;2022-11-20T04:39:39;19.77;;;10.40;;
56183;SDS011;42086;53.170;6.980;2022-11-20T04:42:05;18.10;;;10.00;;
56183;SDS011;42086;53.170;6.980;2022-11-20T04:44:49;19.42;;;10.60;;
56183;SDS011;42086;53.170;6.980;2022-11-20T04:47:14;21.80;;;10.57;;
56183;SDS011;42086;53.170;6.980;2022-11-20T04:49:40;20.55;;;10.07;;
56183;SDS011;42086;53.170;6.980;2022-11-20T04:52:06;19.58;;;10.48;;
56183;SDS011;42086;53.170;6.980;2022-11-20T04:54:31;18.05;;;9.55;;
56183;SDS011;42086;53.170;6.980;2022-11-20T04:56:57;22.33;;;10.70;;
56183;SDS011;42086;53.170;6.980;2022-11-20T04:59:23;23.52;;;11.35;;
56183;SDS011;42086;53.170;6.980;2022-11-20T05:01:48;25.20;;;11.90;;
56183;SDS011;42086;53.170;6.980;2022-11-20T05:04:14;20.67;;;11.45;;
56183;SDS011;42086;53.170;6.980;2022-11-20T05:06:40;22.63;;;11.48;;
56183;SDS011;42086;53.170;6.980;2022-11-20T05:09:05;24.50;;;12.35;;
56183;SDS011;42086;53.170;6.980;2022-11-20T05:11:31;22.08;;;11.90;;
56183;SDS011;42086;53.170;6.980;2022-11-20T05:13:58;22.55;;;11.73;;
56183;SDS011;42086;53.170;6.980;2022-11-20T05:16:24;20.38;;;11.00;;
56183;SDS011;42086;53.170;6.980;2022-11-20T05:18:50;19.45;;;10.40;;
56183;SDS011;42086;53.170;6.980;2022-11-20T05:21:17;21.95;;;11.38;;
56183;SDS011;42086;53.170;6.980;2022-11-20T05:23:43;21.02;;;10.85;;
56183;SDS011;42086;53.170;6.980;2022-11-20T05:26:14;20.77;;;10.77;;
56183;SDS011;42086;53.170;6.980;2022-11-20T05:31:07;22.50;;;11.00;;
56183;SDS011;42086;53.170;6.980;2022-11-20T05:33:35;27.50;;;11.98;;
56183;SDS011;42086;53.170;6.980;2022-11-20T05:36:02;21.27;;;11.10;;
56183;SDS011;42086;53.170;6.980;2022-11-20T05:38:28;21.17;;;10.90;;
56183;SDS011;42086;53.170;6.980;2022-11-20T05:40:54;22.20;;;10.75;;
56183;SDS011;42086;53.170;6.980;2022-11-20T05:43:20;22.52;;;11.20;;
56183;SDS011;42086;53.170;6.980;2022-11-20T05:45:52;21.60;;;11.50;;
56183;SDS011;42086;53.170;6.980;2022-11-20T05:48:19;21.25;;;10.27;;
56183;SDS011;42086;53.170;6.980;2022-11-20T05:50:44;22.15;;;10.35;;
56183;SDS011;42086;53.170;6.980;2022-11-20T05:53:10;19.73;;;10.55;;
56183;SDS011;42086;53.170;6.980;2022-11-20T05:55:35;23.27;;;11.05;;
56183;SDS011;42086;53.170;6.980;2022-11-20T05:58:01;21.70;;;10.93;;
56183;SDS011;42086;53.170;6.980;2022-11-20T06:00:27;20.13;;;10.43;;
56183;SDS011;42086;53.170;6.980;2022-11-20T06:02:52;22.75;;;10.73;;
56183;SDS011;42086;53.170;6.980;2022-11-20T06:05:18;23.10;;;10.77;;
56183;SDS011;42086;53.170;6.980;2022-11-20T06:07:44;21.27;;;11.32;;
56183;SDS011;42086;53.170;6.980;2022-11-20T06:10:10;20.05;;;11.32;;
56183;SDS011;42086;53.170;6.980;2022-11-20T06:12:36;24.55;;;11.82;;
56183;SDS011;42086;53.170;6.980;2022-11-20T06:15:02;19.20;;;10.82;;
56183;SDS011;42086;53.170;6.980;2022-11-20T06:17:29;22.05;;;10.90;;
56183;SDS011;42086;53.170;6.980;2022-11-20T06:19:54;19.98;;;10.70;;
56183;SDS011;42086;53.170;6.980;2022-11-20T06:22:20;20.55;;;11.07;;
56183;SDS011;42086;53.170;6.980;2022-11-20T06:24:46;19.75;;;10.70;;
56183;SDS011;42086;53.170;6.980;2022-11-20T06:27:12;22.98;;;11.25;;
56183;SDS011;42086;53.170;6.980;2022-11-20T06:29:37;21.40;;;11.10;;
56183;SDS011;42086;53.170;6.980;2022-11-20T06:32:03;19.85;;;10.93;;
56183;SDS011;42086;53.170;6.980;2022-11-20T06:34:29;21.38;;;11.00;;
56183;SDS011;42086;53.170;6.980;2022-11-20T06:36:55;20.85;;;11.32;;
56183;SDS011;42086;53.170;6.980;2022-11-20T06:39:20;23.23;;;11.13;;
56183;SDS011;42086;53.170;6.980;2022-11-20T06:41:46;22.15;;;10.80;;
56183;SDS011;42086;53.170;6.980;2022-11-20T06:44:12;21.42;;;10.82;;
56183;SDS011;42086;53.170;6.980;2022-11-20T06:46:37;19.67;;;10.27;;
56183;SDS011;42086;53.170;6.980;2022-11-20T06:49:03;21.02;;;10.68;;
56183;SDS011;42086;53.170;6.980;2022-11-20T06:51:29;20.27;;;10.50;;
56183;SDS011;42086;53.170;6.980;2022-11-20T06:53:54;21.83;;;10.13;;
56183;SDS011;42086;53.170;6.980;2022-11-20T06:56:20;24.40;;;11.48;;
56183;SDS011;42086;53.170;6.980;2022-11-20T06:58:46;21.35;;;11.23;;
56183;SDS011;42086;53.170;6.980;2022-11-20T07:01:12;20.90;;;11.57;;
56183;SDS011;42086;53.170;6.980;2022-11-20T07:03:40;24.85;;;13.05;;
56183;SDS011;42086;53.170;6.980;2022-11-20T07:06:12;23.25;;;12.10;;
56183;SDS011;42086;53.170;6.980;2022-11-20T07:08:37;23.15;;;12.00;;
56183;SDS011;42086;53.170;6.980;2022-11-20T07:11:04;24.52;;;12.90;;
56183;SDS011;42086;53.170;6.980;2022-11-20T07:13:31;22.02;;;11.52;;
56183;SDS011;42086;53.170;6.980;2022-11-20T07:16:00;25.02;;;12.32;;
56183;SDS011;42086;53.170;6.980;2022-11-20T07:18:32;24.15;;;12.50;;
56183;SDS011;42086;53.170;6.980;2022-11-20T07:21:04;23.00;;;12.18;;
56183;SDS011;42086;53.170;6.980;2022-11-20T07:23:33;24.92;;;12.30;;
56183;SDS011;42086;53.170;6.980;2022-11-20T07:26:03;25.83;;;12.60;;
56183;SDS011;42086;53.170;6.980;2022-11-20T07:28:33;22.50;;;12.60;;
56183;SDS011;42086;53.170;6.980;2022-11-20T07:30:59;22.83;;;12.75;;
56183;SDS011;42086;53.170;6.980;2022-11-20T07:33:24;25.02;;;12.15;;
56183;SDS011;42086;53.170;6.980;2022-11-20T07:35:50;23.75;;;12.95;;
56183;SDS011;42086;53.170;6.980;2022-11-20T07:38:16;22.23;;;12.75;;
56183;SDS011;42086;53.170;6.980;2022-11-20T07:40:42;27.17;;;13.27;;
56183;SDS011;42086;53.170;6.980;2022-11-20T07:43:07;24.88;;;12.60;;
56183;SDS011;42086;53.170;6.980;2022-11-20T07:45:33;25.60;;;12.85;;
56183;SDS011;42086;53.170;6.980;2022-11-20T07:47:59;21.45;;;12.20;;
56183;SDS011;42086;53.170;6.980;2022-11-20T07:50:25;25.25;;;12.68;;
56183;SDS011;42086;53.170;6.980;2022-11-20T07:52:50;24.15;;;12.68;;
56183;SDS011;42086;53.170;6.980;2022-11-20T07:55:17;24.45;;;13.88;;
56183;SDS011;42086;53.170;6.980;2022-11-20T07:57:43;22.38;;;12.93;;
56183;SDS011;42086;53.170;6.980;2022-11-20T08:00:09;21.80;;;12.25;;
56183;SDS011;42086;53.170;6.980;2022-11-20T08:02:37;24.27;;;13.00;;
56183;SDS011;42086;53.170;6.980;2022-11-20T08:05:04;23.13;;;13.77;;
56183;SDS011;42086;53.170;6.980;2022-11-20T08:07:35;24.45;;;12.93;;
56183;SDS011;42086;53.170;6.980;2022-11-20T08:10:03;22.75;;;12.52;;
56183;SDS011;42086;53.170;6.980;2022-11-20T08:12:32;23.02;;;12.23;;
56183;SDS011;42086;53.170;6.980;2022-11-20T08:15:16;24.90;;;12.43;;
56183;SDS011;42086;53.170;6.980;2022-11-20T08:17:42;21.95;;;12.45;;
56183;SDS011;42086;53.170;6.980;2022-11-20T08:20:08;23.48;;;11.93;;
56183;SDS011;42086;53.170;6.980;2022-11-20T08:22:34;19.77;;;10.98;;
56183;SDS011;42086;53.170;6.980;2022-11-20T08:24:59;21.98;;;10.52;;
56183;SDS011;42086;53.170;6.980;2022-11-20T08:27:25;21.58;;;11.70;;
56183;SDS011;42086;53.170;6.980;2022-11-20T08:29:51;21.23;;;11.20;;
56183;SDS011;42086;53.170;6.980;2022-11-20T08:32:17;19.42;;;10.45;;
56183;SDS011;42086;53.170;6.980;2022-11-20T08:34:43;22.05;;;10.75;;
56183;SDS011;42086;53.170;6.980;2022-11-20T08:37:08;19.85;;;10.70;;
56183;SDS011;42086;53.170;6.980;2022-11-20T08:39:34;18.38;;;10.45;;
56183;SDS011;42086;53.170;6.980;2022-11-20T08:42:00;19.50;;;10.52;;
56183;SDS011;42086;53.170;6.980;2022-11-20T08:44:25;20.95;;;11.13;;
56183;SDS011;42086;53.170;6.980;2022-11-20T08:46:51;20.33;;;11.25;;
56183;SDS011;42086;53.170;6.980;2022-11-20T08:49:17;18.60;;;10.45;;
56183;SDS011;42086;53.170;6.980;2022-11-20T08:51:43;21.35;;;10.45;;
56183;SDS011;42086;53.170;6.980;2022-11-20T08:54:08;21.33;;;11.52;;
56183;SDS011;42086;53.170;6.980;2022-11-20T08:56:34;21.73;;;11.10;;
56183;SDS011;42086;53.170;6.980;2022-11-20T08:59:00;19.73;;;10.73;;
56183;SDS011;42086;53.170;6.980;2022-11-20T09:01:26;21.60;;;11.40;;
56183;SDS011;42086;53.170;6.980;2022-11-20T09:03:54;20.02;;;10.25;;
56183;SDS011;42086;53.170;6.980;2022-11-20T09:06:22;18.52;;;10.32;;
56183;SDS011;42086;53.170;6.980;2022-11-20T09:08:51;19.42;;;10.55;;
56183;SDS011;42086;53.170;6.980;2022-11-20T09:11:17;19.35;;;9.68;;
56183;SDS011;42086;53.170;6.980;2022-11-20T09:13:43;18.27;;;9.60;;
56183;SDS011;42086;53.170;6.980;2022-11-20T09:16:08;18.73;;;9.68;;
56183;SDS011;42086;53.170;6.980;2022-11-20T09:18:35;18.35;;;9.73;;
56183;SDS011;42086;53.170;6.980;2022-11-20T09:21:04;17.00;;;9.82;;
56183;SDS011;42086;53.170;6.980;2022-11-20T09:23:31;16.20;;;9.60;;
56183;SDS011;42086;53.170;6.980;2022-11-20T09:26:03;21.23;;;10.13;;
56183;SDS011;42086;53.170;6.980;2022-11-20T09:28:35;17.88;;;8.98;;
56183;SDS011;42086;53.170;6.980;2022-11-20T09:31:04;17.38;;;9.93;;
56183;SDS011;42086;53.170;6.980;2022-11-20T09:33:34;16.02;;;8.45;;
56183;SDS011;42086;53.170;6.980;2022-11-20T09:36:00;19.73;;;10.13;;
56183;SDS011;42086;53.170;6.980;2022-11-20T09:38:26;19.42;;;10.15;;
56183;SDS011;42086;53.170;6.980;2022-11-20T09:41:00;19.08;;;9.45;;
56183;SDS011;42086;53.170;6.980;2022-11-20T09:44:36;16.88;;;9.02;;
56183;SDS011;42086;53.170;6.980;2022-11-20T09:46:29;17.38;;;9.15;;
56183;SDS011;42086;53.170;6.980;2022-11-20T09:49:03;17.73;;;9.35;;
56183;SDS011;42086;53.170;6.980;2022-11-20T09:51:33;18.45;;;9.70;;
56183;SDS011;42086;53.170;6.980;2022-11-20T09:54:30;19.55;;;10.35;;
56183;SDS011;42086;53.170;6.980;2022-11-20T09:57:05;21.75;;;9.88;;
56183;SDS011;42086;53.170;6.980;2022-11-20T09:59:46;17.30;;;10.23;;
56183;SDS011;42086;53.170;6.980;2022-11-20T10:05:08;16.58;;;8.52;;
56183;SDS011;42086;53.170;6.980;2022-11-20T10:29:13;17.77;;;9.77;;
56183;SDS011;42086;53.170;6.980;2022-11-20T10:31:53;20.98;;;11.73;;
56183;SDS011;42086;53.170;6.980;2022-11-20T10:34:29;24.10;;;13.00;;
56183;SDS011;42086;53.170;6.980;2022-11-20T10:37:00;23.52;;;13.82;;
56183;SDS011;42086;53.170;6.980;2022-11-20T10:42:22;23.63;;;13.10;;
56183;SDS011;42086;53.170;6.980;2022-11-20T10:48:11;19.80;;;10.13;;
56183;SDS011;42086;53.170;6.980;2022-11-20T10:50:44;15.15;;;8.60;;
56183;SDS011;42086;53.170;6.980;2022-11-20T10:59:00;18.65;;;9.93;;
56183;SDS011;42086;53.170;6.980;2022-11-20T11:01:39;20.48;;;10.57;;
56183;SDS011;42086;53.170;6.980;2022-11-20T11:04:07;16.55;;;9.13;;
56183;SDS011;42086;53.170;6.980;2022-11-20T11:06:51;14.13;;;7.95;;
56183;SDS011;42086;53.170;6.980;2022-11-20T11:09:25;15.93;;;8.40;;
56183;SDS011;42086;53.170;6.980;2022-11-20T11:11:57;15.55;;;9.02;;
56183;SDS011;42086;53.170;6.980;2022-11-20T11:14:23;14.77;;;8.40;;
56183;SDS011;42086;53.170;6.980;2022-11-20T11:16:56;13.80;;;7.53;;
56183;SDS011;42086;53.170;6.980;2022-11-20T11:19:23;13.70;;;7.07;;
56183;SDS011;42086;53.170;6.980;2022-11-20T11:21:50;14.32;;;8.35;;
56183;SDS011;42086;53.170;6.980;2022-11-20T11:24:28;15.00;;;7.60;;
56183;SDS011;42086;53.170;6.980;2022-11-20T11:26:59;15.27;;;7.97;;
56183;SDS011;42086;53.170;6.980;2022-11-20T11:29:32;14.48;;;8.35;;
56183;SDS011;42086;53.170;6.980;2022-11-20T11:32:08;12.80;;;7.60;;
56183;SDS011;42086;53.170;6.980;2022-11-20T11:34:40;14.45;;;7.72;;
56183;SDS011;42086;53.170;6.980;2022-11-20T11:37:19;15.48;;;8.13;;
56183;SDS011;42086;53.170;6.980;2022-11-20T11:39:49;14.15;;;8.07;;
56183;SDS011;42086;53.170;6.980;2022-11-20T11:42:16;12.85;;;7.00;;
56183;SDS011;42086;53.170;6.980;2022-11-20T11:44:44;14.90;;;7.68;;
56183;SDS011;42086;53.170;6.980;2022-11-20T11:48:03;11.70;;;6.82;;
56183;SDS011;42086;53.170;6.980;2022-11-20T11:58:11;13.20;;;7.50;;
56183;SDS011;42086;53.170;6.980;2022-11-20T12:00:41;13.07;;;7.57;;
56183;SDS011;42086;53.170;6.980;2022-11-20T12:03:21;15.32;;;8.10;;
56183;SDS011;42086;53.170;6.980;2022-11-20T12:05:57;15.43;;;8.43;;
56183;SDS011;42086;53.170;6.980;2022-11-20T12:08:27;18.35;;;9.25;;
56183;SDS011;42086;53.170;6.980;2022-11-20T12:11:17;13.95;;;8.40;;
56183;SDS011;42086;53.170;6.980;2022-11-20T12:17:01;14.02;;;8.30;;
56183;SDS011;42086;53.170;6.980;2022-11-20T12:19:29;13.80;;;8.02;;
56183;SDS011;42086;53.170;6.980;2022-11-20T12:30:19;14.63;;;8.88;;
56183;SDS011;42086;53.170;6.980;2022-11-20T12:43:21;10.18;;;6.18;;
56183;SDS011;42086;53.170;6.980;2022-11-20T12:52:01;9.85;;;5.68;;
56183;SDS011;42086;53.170;6.980;2022-11-20T12:54:47;8.85;;;5.30;;
56183;SDS011;42086;53.170;6.980;2022-11-20T13:07:50;8.82;;;5.00;;
56183;SDS011;42086;53.170;6.980;2022-11-20T13:10:24;8.65;;;5.00;;
56183;SDS011;42086;53.170;6.980;2022-11-20T13:12:57;6.38;;;4.25;;
56183;SDS011;42086;53.170;6.980;2022-11-20T13:18:30;5.60;;;3.78;;
56183;SDS011;42086;53.170;6.980;2022-11-20T13:21:12;6.82;;;4.10;;
56183;SDS011;42086;53.170;6.980;2022-11-20T13:23:46;7.20;;;4.32;;
56183;SDS011;42086;53.170;6.980;2022-11-20T13:26:16;7.20;;;3.83;;
56183;SDS011;42086;53.170;6.980;2022-11-20T13:28:47;7.07;;;4.20;;
56183;SDS011;42086;53.170;6.980;2022-11-20T13:31:30;7.88;;;4.38;;
56183;SDS011;42086;53.170;6.980;2022-11-20T13:33:58;6.97;;;4.30;;
56183;SDS011;42086;53.170;6.980;2022-11-20T13:36:28;7.47;;;4.53;;
56183;SDS011;42086;53.170;6.980;2022-11-20T13:38:55;8.02;;;4.65;;
56183;SDS011;42086;53.170;6.980;2022-11-20T13:43:54;10.50;;;5.15;;
56183;SDS011;42086;53.170;6.980;2022-11-20T13:46:34;8.68;;;5.25;;
56183;SDS011;42086;53.170;6.980;2022-11-20T13:49:09;8.30;;;5.07;;
56183;SDS011;42086;53.170;6.980;2022-11-20T13:51:44;10.43;;;5.60;;
56183;SDS011;42086;53.170;6.980;2022-11-20T13:59:50;8.00;;;5.30;;
56183;SDS011;42086;53.170;6.980;2022-11-20T14:02:19;8.18;;;5.18;;
56183;SDS011;42086;53.170;6.980;2022-11-20T14:04:48;9.48;;;5.40;;
56183;SDS011;42086;53.170;6.980;2022-11-20T14:07:16;10.25;;;5.63;;
56183;SDS011;42086;53.170;6.980;2022-11-20T14:09:52;8.75;;;5.70;;
56183;SDS011;42086;53.170;6.980;2022-11-20T14:12:20;9.57;;;5.78;;
56183;SDS011;42086;53.170;6.980;2022-11-20T14:14:52;11.38;;;6.35;;
56183;SDS011;42086;53.170;6.980;2022-11-20T14:19:50;9.93;;;6.07;;
56183;SDS011;42086;53.170;6.980;2022-11-20T14:22:21;10.10;;;6.47;;
56183;SDS011;42086;53.170;6.980;2022-11-20T14:24:49;10.75;;;6.60;;
56183;SDS011;42086;53.170;6.980;2022-11-20T14:27:39;12.85;;;6.63;;
56183;SDS011;42086;53.170;6.980;2022-11-20T14:30:16;11.02;;;6.00;;
56183;SDS011;42086;53.170;6.980;2022-11-20T14:32:45;9.60;;;6.13;;
56183;SDS011;42086;53.170;6.980;2022-11-20T14:35:31;10.45;;;6.18;;
56183;SDS011;42086;53.170;6.980;2022-11-20T14:38:02;10.15;;;6.18;;
56183;SDS011;42086;53.170;6.980;2022-11-20T14:40:29;10.38;;;6.43;;
56183;SDS011;42086;53.170;6.980;2022-11-20T14:42:57;10.70;;;6.70;;
56183;SDS011;42086;53.170;6.980;2022-11-20T14:45:24;10.07;;;6.50;;
56183;SDS011;42086;53.170;6.980;2022-11-20T14:47:52;10.93;;;6.47;;
56183;SDS011;42086;53.170;6.980;2022-11-20T14:50:28;11.75;;;6.60;;
56183;SDS011;42086;53.170;6.980;2022-11-20T14:52:55;10.70;;;6.25;;
56183;SDS011;42086;53.170;6.980;2022-11-20T14:58:01;11.20;;;6.57;;
56183;SDS011;42086;53.170;6.980;2022-11-20T15:00:30;12.40;;;6.72;;
56183;SDS011;42086;53.170;6.980;2022-11-20T15:02:57;12.48;;;7.05;;
56183;SDS011;42086;53.170;6.980;2022-11-20T15:05:24;10.57;;;6.13;;
56183;SDS011;42086;53.170;6.980;2022-11-20T15:08:10;13.45;;;7.15;;
56183;SDS011;42086;53.170;6.980;2022-11-20T15:10:37;12.10;;;6.78;;
56183;SDS011;42086;53.170;6.980;2022-11-20T15:13:10;14.30;;;7.40;;
56183;SDS011;42086;53.170;6.980;2022-11-20T15:15:54;12.18;;;7.25;;
56183;SDS011;42086;53.170;6.980;2022-11-20T15:18:22;11.88;;;6.50;;
56183;SDS011;42086;53.170;6.980;2022-11-20T15:21:03;13.82;;;7.00;;
56183;SDS011;42086;53.170;6.980;2022-11-20T15:23:34;12.32;;;7.25;;
56183;SDS011;42086;53.170;6.980;2022-11-20T15:26:00;11.73;;;7.07;;
56183;SDS011;42086;53.170;6.980;2022-11-20T15:28:36;12.27;;;6.90;;
56183;SDS011;42086;53.170;6.980;2022-11-20T15:31:05;12.00;;;6.95;;
56183;SDS011;42086;53.170;6.980;2022-11-20T15:33:32;12.10;;;6.90;;
56183;SDS011;42086;53.170;6.980;2022-11-20T15:35:58;11.52;;;6.97;;
56183;SDS011;42086;53.170;6.980;2022-11-20T15:38:24;11.05;;;6.28;;
56183;SDS011;42086;53.170;6.980;2022-11-20T15:40:49;12.75;;;7.60;;
56183;SDS011;42086;53.170;6.980;2022-11-20T15:43:15;11.05;;;6.63;;
56183;SDS011;42086;53.170;6.980;2022-11-20T15:45:48;11.52;;;6.70;;
56183;SDS011;42086;53.170;6.980;2022-11-20T15:48:24;13.00;;;7.32;;
56183;SDS011;42086;53.170;6.980;2022-11-20T15:53:21;11.98;;;7.30;;
56183;SDS011;42086;53.170;6.980;2022-11-20T15:55:47;13.00;;;7.30;;
56183;SDS011;42086;53.170;6.980;2022-11-20T15:58:13;16.27;;;7.97;;
56183;SDS011;42086;53.170;6.980;2022-11-20T16:00:39;14.32;;;7.18;;
56183;SDS011;42086;53.170;6.980;2022-11-20T16:03:04;13.52;;;8.30;;
56183;SDS011;42086;53.170;6.980;2022-11-20T16:05:30;14.85;;;7.47;;
56183;SDS011;42086;53.170;6.980;2022-11-20T16:07:56;16.25;;;8.13;;
56183;SDS011;42086;53.170;6.980;2022-11-20T16:10:22;15.98;;;7.82;;
56183;SDS011;42086;53.170;6.980;2022-11-20T16:12:48;14.38;;;8.07;;
56183;SDS011;42086;53.170;6.980;2022-11-20T16:15:33;14.23;;;8.25;;
56183;SDS011;42086;53.170;6.980;2022-11-20T16:18:15;16.80;;;8.48;;
56183;SDS011;42086;53.170;6.980;2022-11-20T16:20:43;15.13;;;8.07;;
56183;SDS011;42086;53.170;6.980;2022-11-20T16:23:10;13.63;;;7.50;;
56183;SDS011;42086;53.170;6.980;2022-11-20T16:25:36;13.38;;;8.45;;
56183;SDS011;42086;53.170;6.980;2022-11-20T16:28:02;16.00;;;8.93;;
56183;SDS011;42086;53.170;6.980;2022-11-20T16:30:28;15.18;;;8.55;;
56183;SDS011;42086;53.170;6.980;2022-11-20T16:32:53;16.10;;;8.60;;